createdAt,value
2019-06-08T00:02:04.055Z,20.50
2019-06-08T00:04:30.272Z,20.50
2019-06-08T00:06:56.108Z,20.50
2019-06-08T00:09:22.560Z,20.25
2019-06-08T00:11:50.039Z,20.37
2019-06-08T00:14:17.354Z,20.31
2019-06-08T00:16:43.383Z,20.62
2019-06-08T00:19:09.227Z,20.56
2019-06-08T00:21:35.075Z,20.37
2019-06-08T00:24:01.067Z,20.25
2019-06-08T00:26:26.952Z,20.37
2019-06-08T00:28:52.811Z,20.31
2019-06-08T00:31:19.999Z,20.19
2019-06-08T00:33:46.029Z,20.44
2019-06-08T00:36:11.958Z,20.37
2019-06-08T00:38:37.786Z,20.44
2019-06-08T00:41:06.477Z,20.31
2019-06-08T00:43:32.773Z,20.44
2019-06-08T00:45:58.720Z,20.25
2019-06-08T00:48:24.689Z,20.19
2019-06-08T00:50:50.631Z,20.31
2019-06-08T00:53:17.072Z,20.50
2019-06-08T00:55:45.699Z,20.50
2019-06-08T00:58:11.579Z,20.44
2019-06-08T01:00:37.495Z,20.56
2019-06-08T01:03:03.426Z,20.44
2019-06-08T01:05:30.240Z,20.25
2019-06-08T01:07:56.183Z,20.37
2019-06-08T01:10:23.414Z,20.31
2019-06-08T01:12:49.461Z,20.31
2019-06-08T01:15:15.748Z,20.37
2019-06-08T01:17:41.673Z,20.44
2019-06-08T01:20:07.819Z,20.31
2019-06-08T01:22:33.668Z,20.37
2019-06-08T01:24:59.509Z,20.31
2019-06-08T01:27:26.072Z,20.31
2019-06-08T01:29:52.095Z,20.50
2019-06-08T01:32:17.958Z,20.37
2019-06-08T01:34:43.887Z,20.31
2019-06-08T01:37:10.085Z,20.31
2019-06-08T01:39:35.933Z,20.37
2019-06-08T01:42:01.782Z,20.44
2019-06-08T01:44:28.102Z,20.56
2019-06-08T01:46:54.016Z,20.44
2019-06-08T01:49:19.852Z,20.56
2019-06-08T01:51:45.694Z,20.50
2019-06-08T01:54:11.553Z,20.56
2019-06-08T01:56:37.470Z,20.44
2019-06-08T01:59:03.290Z,20.44
2019-06-08T02:01:29.939Z,20.56
2019-06-08T02:03:55.889Z,20.50
2019-06-08T02:06:21.729Z,20.62
2019-06-08T02:08:47.557Z,20.69
2019-06-08T02:11:13.421Z,20.44
2019-06-08T02:13:39.251Z,20.25
2019-06-08T02:16:05.075Z,20.12
2019-06-08T02:18:38.887Z,19.87
2019-06-08T02:20:58.630Z,19.87
2019-06-08T02:23:24.464Z,19.81
2019-06-08T02:25:50.390Z,19.69
2019-06-08T02:28:16.269Z,19.75
2019-06-08T02:30:42.162Z,19.62
2019-06-08T02:33:08.080Z,19.62
2019-06-08T02:35:35.409Z,19.50
2019-06-08T02:38:01.774Z,19.37
2019-06-08T02:40:27.675Z,19.31
2019-06-08T02:42:53.519Z,19.31
2019-06-08T02:45:19.453Z,19.44
2019-06-08T02:47:45.392Z,19.31
2019-06-08T02:50:13.146Z,19.25
2019-06-08T02:52:40.818Z,19.12
2019-06-08T02:55:07.567Z,19.00
2019-06-08T02:57:37.473Z,19.06
2019-06-08T03:00:06.050Z,19.06
2019-06-08T03:02:33.760Z,19.06
2019-06-08T03:05:01.130Z,19.00
2019-06-08T03:07:30.412Z,18.94
2019-06-08T03:09:56.480Z,19.06
2019-06-08T03:12:24.485Z,18.81
2019-06-08T03:14:52.724Z,18.87
2019-06-08T03:17:18.566Z,18.81
2019-06-08T03:19:44.379Z,19.00
2019-06-08T03:22:11.106Z,18.87
2019-06-08T03:24:38.723Z,18.94
2019-06-08T03:27:04.712Z,18.69
2019-06-08T03:29:30.556Z,18.81
2019-06-08T03:31:57.717Z,18.75
2019-06-08T03:34:23.884Z,18.62
2019-06-08T03:36:55.751Z,18.62
2019-06-08T03:39:17.464Z,18.69
2019-06-08T03:41:45.217Z,18.87
2019-06-08T03:44:11.043Z,18.81
2019-06-08T03:46:38.669Z,18.75
2019-06-08T03:49:04.635Z,18.69
2019-06-08T03:51:35.075Z,18.37
2019-06-08T03:53:58.248Z,17.87
2019-06-08T03:56:24.103Z,17.69
2019-06-08T03:58:49.976Z,17.31
2019-06-08T04:01:15.967Z,17.06
2019-06-08T04:03:43.784Z,17.06
2019-06-08T04:06:09.634Z,17.12
2019-06-08T04:08:35.468Z,16.94
2019-06-08T04:11:01.340Z,16.87
2019-06-08T04:13:27.184Z,16.81
2019-06-08T04:15:53.010Z,16.75
2019-06-08T04:18:18.846Z,16.94
2019-06-08T04:20:46.444Z,17.06
2019-06-08T04:23:12.417Z,16.69
2019-06-08T04:25:38.883Z,16.75
2019-06-08T04:28:06.147Z,16.69
2019-06-08T04:30:32.144Z,16.69
2019-06-08T04:32:58.033Z,16.75
2019-06-08T04:35:23.898Z,16.94
2019-06-08T04:37:50.508Z,16.62
2019-06-08T04:40:16.732Z,16.69
2019-06-08T04:42:44.416Z,17.00
2019-06-08T04:45:10.424Z,16.69
2019-06-08T04:47:36.261Z,16.81
2019-06-08T04:50:20.761Z,16.87
2019-06-08T04:52:32.396Z,16.75
2019-06-08T04:54:58.244Z,16.75
2019-06-08T04:57:24.084Z,16.94
2019-06-08T04:59:50.662Z,17.00
2019-06-08T05:02:16.492Z,16.94
2019-06-08T05:04:43.283Z,16.87
2019-06-08T05:07:09.263Z,17.00
2019-06-08T05:09:35.105Z,16.94
2019-06-08T05:12:00.918Z,16.94
2019-06-08T05:14:26.756Z,16.94
2019-06-08T05:16:52.590Z,17.00
2019-06-08T05:19:18.428Z,16.94
2019-06-08T05:21:45.494Z,17.12
2019-06-08T05:24:13.798Z,17.12
2019-06-08T05:26:39.651Z,17.19
2019-06-08T05:29:05.483Z,17.31
2019-06-08T05:31:31.300Z,17.06
2019-06-08T05:33:57.161Z,17.12
2019-06-08T05:36:23.092Z,17.12
2019-06-08T05:38:49.989Z,17.44
2019-06-08T05:41:16.092Z,17.44
2019-06-08T05:43:41.939Z,17.50
2019-06-08T05:46:08.224Z,17.56
2019-06-08T05:48:34.111Z,17.56
2019-06-08T05:51:03.920Z,17.69
2019-06-08T05:53:27.769Z,17.87
2019-06-08T05:55:53.733Z,17.94
2019-06-08T05:58:19.683Z,18.12
2019-06-08T06:00:48.362Z,18.06
2019-06-08T06:03:14.267Z,18.19
2019-06-08T06:05:40.501Z,18.12
2019-06-08T06:08:17.986Z,18.19
2019-06-08T06:10:34.147Z,18.12
2019-06-08T06:13:00.008Z,18.31
2019-06-08T06:15:25.908Z,18.31
2019-06-08T06:17:53.751Z,18.56
2019-06-08T06:20:19.622Z,18.56
2019-06-08T06:22:45.904Z,21.25
2019-06-08T06:25:13.482Z,22.19
2019-06-08T06:27:39.360Z,22.37
2019-06-08T06:30:08.410Z,22.87
2019-06-08T06:32:34.247Z,22.87
2019-06-08T06:35:00.114Z,22.50
2019-06-08T06:37:26.055Z,21.25
2019-06-08T06:39:52.368Z,20.88
2019-06-08T06:42:18.359Z,20.06
2019-06-08T06:44:45.747Z,19.62
2019-06-08T06:47:12.081Z,19.31
2019-06-08T06:49:38.018Z,19.37
2019-06-08T06:52:03.899Z,19.19
2019-06-08T06:54:29.761Z,19.44
2019-06-08T06:56:55.679Z,20.06
2019-06-08T06:59:21.582Z,20.31
2019-06-08T07:01:47.702Z,20.69
2019-06-08T07:04:13.623Z,20.75
2019-06-08T07:06:39.478Z,20.81
2019-06-08T07:09:05.694Z,20.88
2019-06-08T07:11:31.568Z,20.88
2019-06-08T07:13:57.500Z,21.00
2019-06-08T07:16:23.332Z,21.00
2019-06-08T07:18:50.226Z,21.06
2019-06-08T07:21:16.316Z,21.12
2019-06-08T07:23:42.665Z,21.00
2019-06-08T07:26:08.635Z,20.94
2019-06-08T07:28:34.571Z,20.94
2019-06-08T07:31:00.495Z,21.06
2019-06-08T07:33:26.435Z,21.00
2019-06-08T07:35:53.377Z,21.12
2019-06-08T07:38:19.403Z,21.25
2019-06-08T07:40:45.266Z,21.50
2019-06-08T07:43:11.107Z,21.62
2019-06-08T07:45:36.970Z,21.37
2019-06-08T07:48:03.577Z,21.31
2019-06-08T07:50:29.567Z,21.69
2019-06-08T07:52:56.574Z,21.44
2019-06-08T07:55:22.648Z,21.12
2019-06-08T07:57:50.349Z,21.06
2019-06-08T08:00:16.417Z,21.00
2019-06-08T08:02:42.259Z,21.06
2019-06-08T08:05:08.672Z,21.31
2019-06-08T08:07:34.548Z,21.06
2019-06-08T08:10:00.411Z,21.12
2019-06-08T08:12:26.383Z,21.00
2019-06-08T08:14:53.318Z,20.94
2019-06-08T08:17:19.327Z,20.81
2019-06-08T08:19:45.147Z,20.56
2019-06-08T08:22:22.114Z,20.94
2019-06-08T08:24:38.803Z,20.75
2019-06-08T08:27:04.683Z,20.37
2019-06-08T08:29:31.450Z,20.50
2019-06-08T08:32:00.142Z,20.50
2019-06-08T08:34:25.200Z,20.25
2019-06-08T08:36:51.967Z,20.37
2019-06-08T08:39:18.221Z,20.19
2019-06-08T08:41:44.215Z,20.62
2019-06-08T08:44:10.144Z,20.62
2019-06-08T08:46:38.829Z,20.94
2019-06-08T08:49:09.351Z,20.50
2019-06-08T08:51:32.607Z,20.37
2019-06-08T08:54:04.743Z,20.75
2019-06-08T08:56:28.021Z,20.88
2019-06-08T08:58:54.402Z,20.56
2019-06-08T09:01:20.621Z,20.25
2019-06-08T09:03:48.226Z,20.44
2019-06-08T09:06:14.261Z,20.37
2019-06-08T09:08:40.190Z,19.69
2019-06-08T09:11:08.116Z,20.06
2019-06-08T09:13:33.784Z,20.06
2019-06-08T09:16:02.332Z,20.37
2019-06-08T09:18:28.666Z,20.69
2019-06-08T09:20:55.967Z,20.50
2019-06-08T09:23:22.509Z,20.62
2019-06-08T09:25:48.542Z,19.87
2019-06-08T09:28:14.714Z,20.00
2019-06-08T09:30:40.631Z,19.87
2019-06-08T09:33:08.009Z,20.06
2019-06-08T09:35:34.008Z,19.62
2019-06-08T09:38:02.927Z,19.87
2019-06-08T09:40:31.932Z,19.75
2019-06-08T09:43:00.989Z,19.94
2019-06-08T09:45:23.137Z,20.25
2019-06-08T09:47:48.967Z,20.44
2019-06-08T09:50:18.539Z,20.44
2019-06-08T09:52:44.060Z,20.56
2019-06-08T09:55:10.036Z,20.12
2019-06-08T09:57:38.302Z,20.19
2019-06-08T10:00:15.416Z,20.31
2019-06-08T10:02:35.723Z,20.25
2019-06-08T10:05:04.042Z,20.06
2019-06-08T10:07:31.351Z,20.25
2019-06-08T10:10:00.369Z,20.25
2019-06-08T10:12:24.914Z,20.37
2019-06-08T10:14:50.898Z,20.25
2019-06-08T10:17:20.601Z,20.12
2019-06-08T10:19:44.496Z,20.50
2019-06-08T10:22:10.421Z,20.75
2019-06-08T10:24:38.776Z,21.19
2019-06-08T10:27:05.545Z,21.12
2019-06-08T10:29:31.768Z,20.94
2019-06-08T10:31:57.591Z,20.62
2019-06-08T10:34:23.434Z,20.75
2019-06-08T10:36:49.269Z,20.75
2019-06-08T10:39:15.124Z,20.62
2019-06-08T10:41:40.967Z,21.12
2019-06-08T10:44:08.586Z,20.69
2019-06-08T10:46:34.634Z,21.00
2019-06-08T10:49:01.825Z,20.94
2019-06-08T10:51:27.942Z,21.06
2019-06-08T10:53:53.989Z,21.19
2019-06-08T10:56:19.883Z,20.88
2019-06-08T10:58:49.458Z,20.94
2019-06-08T11:01:13.637Z,21.25
2019-06-08T11:03:39.758Z,20.94
2019-06-08T11:06:07.536Z,21.00
2019-06-08T11:08:33.484Z,21.31
2019-06-08T11:11:00.045Z,21.75
2019-06-08T11:13:28.325Z,21.75
2019-06-08T11:15:54.343Z,21.75
2019-06-08T11:18:20.158Z,21.56
2019-06-08T11:20:47.876Z,21.69
2019-06-08T11:23:13.807Z,22.06
2019-06-08T11:25:39.637Z,21.69
2019-06-08T11:28:11.468Z,21.00
2019-06-08T11:30:33.323Z,21.06
2019-06-08T11:32:59.880Z,21.25
2019-06-08T11:35:28.480Z,21.19
2019-06-08T11:37:53.647Z,21.25
2019-06-08T11:40:20.779Z,21.37
2019-06-08T11:42:48.520Z,21.69
2019-06-08T11:45:17.567Z,21.75
2019-06-08T11:47:42.989Z,22.19
2019-06-08T11:50:12.969Z,21.87
2019-06-08T11:52:38.260Z,21.69
2019-06-08T11:55:05.801Z,21.37
2019-06-08T11:57:33.315Z,21.31
2019-06-08T11:59:59.657Z,21.69
2019-06-08T12:02:25.501Z,21.44
2019-06-08T12:04:51.373Z,21.31
2019-06-08T12:07:17.406Z,21.19
2019-06-08T12:09:43.247Z,21.25
2019-06-08T12:12:14.182Z,21.00
2019-06-08T12:14:37.602Z,21.12
2019-06-08T12:17:05.249Z,21.19
2019-06-08T12:19:34.619Z,21.25
2019-06-08T12:22:00.555Z,21.31
2019-06-08T12:24:40.935Z,21.19
2019-06-08T12:27:00.169Z,21.44
2019-06-08T12:29:21.936Z,21.56
2019-06-08T12:31:47.839Z,21.87
2019-06-08T12:34:18.327Z,21.62
2019-06-08T12:36:43.701Z,21.75
2019-06-08T12:39:10.064Z,21.81
2019-06-08T12:41:37.709Z,21.69
2019-06-08T12:44:04.729Z,21.87
2019-06-08T12:46:30.717Z,22.69
2019-06-08T12:48:58.340Z,22.50
2019-06-08T12:51:24.335Z,22.50
2019-06-08T12:53:50.161Z,22.69
2019-06-08T12:56:19.291Z,22.56
2019-06-08T12:58:43.793Z,22.94
2019-06-08T13:01:11.024Z,22.75
2019-06-08T13:03:37.849Z,22.69
2019-06-08T13:06:03.790Z,22.69
2019-06-08T13:08:29.765Z,22.62
2019-06-08T13:10:57.904Z,22.81
2019-06-08T13:13:24.309Z,22.69
2019-06-08T13:15:50.744Z,22.75
2019-06-08T13:18:17.665Z,22.75
2019-06-08T13:20:44.571Z,22.69
2019-06-08T13:23:11.558Z,23.00
2019-06-08T13:25:43.519Z,22.81
2019-06-08T13:28:12.230Z,22.94
2019-06-08T13:30:33.422Z,22.81
2019-06-08T13:32:59.400Z,23.06
2019-06-08T13:35:27.395Z,23.12
2019-06-08T13:37:57.110Z,23.25
2019-06-08T13:40:23.703Z,23.19
2019-06-08T13:42:51.258Z,23.25
2019-06-08T13:45:19.030Z,23.31
2019-06-08T13:47:50.259Z,22.81
2019-06-08T13:50:14.516Z,22.94
2019-06-08T13:52:40.550Z,23.00
2019-06-08T13:55:07.098Z,23.06
2019-06-08T13:57:33.039Z,23.06
2019-06-08T13:59:58.894Z,23.06
2019-06-08T14:02:29.010Z,23.12
2019-06-08T14:04:53.352Z,23.12
2019-06-08T14:07:24.486Z,23.12
2019-06-08T14:09:47.931Z,23.12
2019-06-08T14:12:14.748Z,24.75
2019-06-08T14:17:08.668Z,25.25
2019-06-08T14:19:34.588Z,25.31
2019-06-08T14:22:00.425Z,24.69
2019-06-08T14:24:32.492Z,24.37
2019-06-08T14:26:54.130Z,25.00
2019-06-08T14:29:21.417Z,25.56
2019-06-08T14:31:47.836Z,25.44
2019-06-08T14:34:13.769Z,25.44
2019-06-08T14:36:40.966Z,24.75
2019-06-08T14:39:10.417Z,24.44
2019-06-08T14:41:34.923Z,24.25
2019-06-08T14:44:00.896Z,24.25
2019-06-08T14:46:28.786Z,24.19
2019-06-08T14:48:58.423Z,24.19
2019-06-08T14:51:28.802Z,24.12
2019-06-08T14:53:54.127Z,24.00
2019-06-08T14:56:21.256Z,24.00
2019-06-08T14:58:48.295Z,24.06
2019-06-08T15:01:14.371Z,23.94
2019-06-08T15:03:40.203Z,24.12
2019-06-08T15:06:08.152Z,23.94
2019-06-08T15:08:33.882Z,23.87
2019-06-08T15:10:59.810Z,23.81
2019-06-08T15:13:26.260Z,23.81
2019-06-08T15:15:53.518Z,23.81
2019-06-08T15:18:20.399Z,23.87
2019-06-08T15:20:48.092Z,24.06
2019-06-08T15:23:21.185Z,24.12
2019-06-08T15:25:46.602Z,24.00
2019-06-08T15:28:12.455Z,24.06
2019-06-08T15:30:38.302Z,24.00
2019-06-08T15:33:04.179Z,24.00
2019-06-08T15:35:30.076Z,24.12
2019-06-08T15:37:58.273Z,23.94
2019-06-08T15:40:23.670Z,24.06
2019-06-08T15:42:49.490Z,24.06
2019-06-08T15:45:15.386Z,24.00
2019-06-08T15:47:41.202Z,24.06
2019-06-08T15:50:08.809Z,23.69
2019-06-08T15:52:34.882Z,23.69
2019-06-08T15:55:01.531Z,23.75
2019-06-08T15:57:29.672Z,23.44
2019-06-08T15:59:55.519Z,23.25
2019-06-08T16:02:21.383Z,23.38
2019-06-08T16:04:48.731Z,23.38
2019-06-08T16:07:14.627Z,23.44
2019-06-08T16:09:40.533Z,23.31
2019-06-08T16:12:06.663Z,23.19
2019-06-08T16:14:32.877Z,23.12
2019-06-08T16:16:58.805Z,23.38
2019-06-08T16:19:25.363Z,23.25
2019-06-08T16:21:51.369Z,23.31
2019-06-08T16:24:17.200Z,23.56
2019-06-08T16:26:52.656Z,23.50
2019-06-08T16:29:11.084Z,23.50
2019-06-08T16:31:36.937Z,23.50
2019-06-08T16:34:02.879Z,23.38
2019-06-08T16:36:29.397Z,23.38
2019-06-08T16:38:55.351Z,23.62
2019-06-08T16:41:21.259Z,23.56
2019-06-08T16:43:47.218Z,23.62
2019-06-08T16:46:13.076Z,23.38
2019-06-08T16:48:39.525Z,23.44
2019-06-08T16:51:05.646Z,23.56
2019-06-08T16:53:32.449Z,23.44
2019-06-08T16:55:59.335Z,23.38
2019-06-08T16:58:25.499Z,23.44
2019-06-08T17:00:51.347Z,23.19
2019-06-08T17:03:17.259Z,23.06
2019-06-08T17:05:43.159Z,23.12
2019-06-08T17:08:08.984Z,23.19
2019-06-08T17:10:34.851Z,23.06
2019-06-08T17:13:00.669Z,23.00
2019-06-08T17:15:26.500Z,22.94
2019-06-08T17:17:52.355Z,22.94
2019-06-08T17:20:18.181Z,22.62
2019-06-08T17:22:44.047Z,22.69
2019-06-08T17:25:10.090Z,22.75
2019-06-08T17:27:36.767Z,22.44
2019-06-08T17:30:08.662Z,22.81
2019-06-08T17:32:35.790Z,23.00
2019-06-08T17:35:03.363Z,23.00
2019-06-08T17:37:29.257Z,22.94
2019-06-08T17:39:55.201Z,22.75
2019-06-08T17:42:21.051Z,22.94
2019-06-08T17:44:46.998Z,22.87
2019-06-08T17:47:12.836Z,22.81
2019-06-08T17:49:38.727Z,22.75
2019-06-08T17:52:04.632Z,22.81
2019-06-08T17:54:30.451Z,22.62
2019-06-08T17:56:56.317Z,22.56
2019-06-08T17:59:22.141Z,22.56
2019-06-08T18:01:48.006Z,22.31
2019-06-08T18:04:13.963Z,22.19
2019-06-08T18:06:41.548Z,22.00
2019-06-08T18:09:07.965Z,22.37
2019-06-08T18:11:34.207Z,22.50
2019-06-08T18:14:00.066Z,22.44
2019-06-08T18:16:27.872Z,22.44
2019-06-08T18:18:53.822Z,22.06
2019-06-08T18:21:19.702Z,22.25
2019-06-08T18:23:48.014Z,22.50
2019-06-08T18:26:13.299Z,22.37
2019-06-08T18:28:45.972Z,22.19
2019-06-08T18:31:12.106Z,22.13
2019-06-08T18:33:39.881Z,22.06
2019-06-08T18:36:07.696Z,21.87
2019-06-08T18:38:33.458Z,21.75
2019-06-08T18:40:59.302Z,21.87
2019-06-08T18:43:27.552Z,21.69
2019-06-08T18:45:53.042Z,20.94
2019-06-08T18:48:18.884Z,21.31
2019-06-08T18:50:46.105Z,21.19
2019-06-08T18:53:12.482Z,21.44
2019-06-08T18:55:40.709Z,21.19
2019-06-08T18:58:17.620Z,20.88
2019-06-08T19:00:39.431Z,21.06
2019-06-08T19:03:04.476Z,21.06
2019-06-08T19:05:31.344Z,21.12
2019-06-08T19:07:57.386Z,20.94
2019-06-08T19:10:29.977Z,21.12
2019-06-08T19:12:55.894Z,20.94
2019-06-08T19:15:27.655Z,20.88
2019-06-08T19:17:54.402Z,20.69
2019-06-08T19:20:20.550Z,20.69
2019-06-08T19:22:53.763Z,20.56
2019-06-08T19:25:14.159Z,20.69
2019-06-08T19:27:44.564Z,21.00
2019-06-08T19:30:07.876Z,20.56
2019-06-08T19:32:33.742Z,20.56
2019-06-08T19:34:59.626Z,20.69
2019-06-08T19:37:27.827Z,20.75
2019-06-08T19:39:53.233Z,20.81
2019-06-08T19:42:39.496Z,20.56
2019-06-08T19:45:05.594Z,20.88
2019-06-08T19:47:31.757Z,20.94
2019-06-08T19:49:57.921Z,20.69
2019-06-08T19:52:23.882Z,20.44
2019-06-08T20:05:17.347Z,20.37
2019-06-08T20:07:42.983Z,20.37
2019-06-08T20:10:08.930Z,20.56
2019-06-08T20:12:37.229Z,20.56
2019-06-08T20:15:04.715Z,20.50
2019-06-08T20:17:30.569Z,20.62
2019-06-08T20:19:58.398Z,20.31
2019-06-08T20:22:24.232Z,20.06
2019-06-08T20:24:54.267Z,20.19
2019-06-08T20:27:17.857Z,20.06
2019-06-08T20:29:43.811Z,19.81
2019-06-08T20:32:09.660Z,19.81
2019-06-08T20:34:37.611Z,19.75
2019-06-08T20:37:03.283Z,20.06
2019-06-08T20:39:29.121Z,19.94
2019-06-08T20:41:54.970Z,19.62
2019-06-08T20:44:20.903Z,19.37
2019-06-08T20:46:49.508Z,19.25
2019-06-08T20:49:17.236Z,19.19
2019-06-08T20:51:44.233Z,19.12
2019-06-08T20:54:10.299Z,19.06
2019-06-08T20:56:37.162Z,19.00
2019-06-08T20:59:03.205Z,19.06
2019-06-08T21:01:29.083Z,18.87
2019-06-08T21:03:56.966Z,18.94
2019-06-08T21:06:22.684Z,19.00
2019-06-08T21:08:48.993Z,18.87
2019-06-08T21:11:17.647Z,18.81
2019-06-08T21:13:45.181Z,18.87
2019-06-08T21:16:11.404Z,18.87
2019-06-08T21:18:37.988Z,18.75
2019-06-08T21:21:03.979Z,18.69
2019-06-08T21:23:32.052Z,18.69
2019-06-08T21:26:00.166Z,18.69
2019-06-08T21:28:27.812Z,18.56
2019-06-08T21:30:55.836Z,18.69
2019-06-08T21:33:20.903Z,18.50
2019-06-08T21:35:49.575Z,18.62
2019-06-08T21:38:23.293Z,18.56
2019-06-08T21:40:42.271Z,18.62
2019-06-08T21:43:08.307Z,18.50
2019-06-08T21:45:34.265Z,18.37
2019-06-08T21:48:00.544Z,18.44
2019-06-08T21:50:27.577Z,18.44
2019-06-08T21:52:54.692Z,18.37
2019-06-08T21:55:21.515Z,18.37
2019-06-08T21:57:49.498Z,18.56
2019-06-08T22:00:38.172Z,18.31
2019-06-08T22:02:43.431Z,18.25
2019-06-08T22:05:11.159Z,18.25
2019-06-08T22:07:37.744Z,18.25
2019-06-08T22:10:07.265Z,18.19
2019-06-08T22:12:32.592Z,18.19
2019-06-08T22:14:59.798Z,18.12
2019-06-08T22:17:27.768Z,18.06
2019-06-08T22:19:54.996Z,18.06
2019-06-08T22:22:20.974Z,18.06
2019-06-08T22:24:47.452Z,18.12
2019-06-08T22:27:13.572Z,17.94
2019-06-08T22:29:39.697Z,18.00
2019-06-08T22:32:07.653Z,18.00
2019-06-08T22:34:33.271Z,17.94
2019-06-08T22:37:00.352Z,17.94
2019-06-08T22:39:28.101Z,17.94
2019-06-08T22:41:55.298Z,17.94
2019-06-08T22:44:21.955Z,17.94
2019-06-08T22:46:47.986Z,17.87
2019-06-08T22:49:15.345Z,17.81
2019-06-08T22:51:41.391Z,17.87
2019-06-08T22:54:08.001Z,17.81
2019-06-08T22:56:33.982Z,17.87
2019-06-08T22:59:04.225Z,17.81
2019-06-08T23:01:29.332Z,17.81
2019-06-08T23:03:57.018Z,17.81
2019-06-08T23:06:23.044Z,17.75
2019-06-08T23:08:48.878Z,17.81
2019-06-08T23:11:14.711Z,17.81
2019-06-08T23:13:40.535Z,17.69
2019-06-08T23:16:08.834Z,17.69
2019-06-08T23:18:34.113Z,17.62
2019-06-08T23:21:01.616Z,17.62
2019-06-08T23:23:27.729Z,17.69
2019-06-08T23:25:53.564Z,17.62
2019-06-08T23:28:19.398Z,17.62
2019-06-08T23:30:47.524Z,17.44
2019-06-08T23:33:13.075Z,17.56
2019-06-08T23:36:07.739Z,17.50
2019-06-08T23:38:08.132Z,17.50
2019-06-08T23:40:34.474Z,17.56
2019-06-08T23:43:01.596Z,17.50
2019-06-08T23:45:28.091Z,17.50
2019-06-08T23:47:53.948Z,17.37
2019-06-08T23:50:19.875Z,17.37
2019-06-08T23:52:47.552Z,17.56
2019-06-08T23:55:13.530Z,17.31
2019-06-08T23:57:39.384Z,17.37
